sensor_id;sensor_type;location;lat;lon;timestamp;pressure;altitude;pressure_sealevel;temperature;humidity
60355;BME280;46198;51.464;-0.066;2022-09-16T00:01:38;101464.47;;;14.55;59.81
60355;BME280;46198;51.464;-0.066;2022-09-16T00:04:06;101475.00;;;14.52;61.37
60355;BME280;46198;51.464;-0.066;2022-09-16T00:06:36;101468.94;;;14.50;58.90
60355;BME280;46198;51.464;-0.066;2022-09-16T00:09:04;101466.06;;;14.45;59.54
60355;BME280;46198;51.464;-0.066;2022-09-16T00:11:32;101459.53;;;14.46;60.64
60355;BME280;46198;51.464;-0.066;2022-09-16T00:14:01;101463.13;;;14.28;58.86
60355;BME280;46198;51.464;-0.066;2022-09-16T00:16:29;101461.13;;;14.35;60.08
60355;BME280;46198;51.464;-0.066;2022-09-16T00:18:59;101466.28;;;14.25;60.48
60355;BME280;46198;51.464;-0.066;2022-09-16T00:21:29;101463.72;;;14.30;60.64
60355;BME280;46198;51.464;-0.066;2022-09-16T00:23:57;101463.13;;;14.28;60.97
60355;BME280;46198;51.464;-0.066;2022-09-16T00:26:25;101468.59;;;14.28;60.49
60355;BME280;46198;51.464;-0.066;2022-09-16T00:28:53;101467.38;;;14.24;61.46
60355;BME280;46198;51.464;-0.066;2022-09-16T00:31:22;101469.78;;;14.13;60.25
60355;BME280;46198;51.464;-0.066;2022-09-16T00:33:50;101472.47;;;14.02;60.38
60355;BME280;46198;51.464;-0.066;2022-09-16T00:36:19;101469.22;;;14.11;60.46
60355;BME280;46198;51.464;-0.066;2022-09-16T00:38:49;101469.94;;;14.18;60.97
60355;BME280;46198;51.464;-0.066;2022-09-16T00:41:24;101466.22;;;14.13;60.75
60355;BME280;46198;51.464;-0.066;2022-09-16T00:43:55;101464.94;;;14.15;61.47
60355;BME280;46198;51.464;-0.066;2022-09-16T00:46:29;101469.63;;;14.08;61.34
60355;BME280;46198;51.464;-0.066;2022-09-16T00:49:03;101466.75;;;14.03;61.58
60355;BME280;46198;51.464;-0.066;2022-09-16T00:51:34;101474.66;;;14.11;62.04
60355;BME280;46198;51.464;-0.066;2022-09-16T00:54:04;101472.63;;;14.07;61.91
60355;BME280;46198;51.464;-0.066;2022-09-16T00:56:38;101484.72;;;14.11;61.96
60355;BME280;46198;51.464;-0.066;2022-09-16T00:59:10;101475.81;;;14.04;61.98
60355;BME280;46198;51.464;-0.066;2022-09-16T01:01:41;101485.13;;;13.96;62.00
60355;BME280;46198;51.464;-0.066;2022-09-16T01:04:15;101487.22;;;13.94;61.74
60355;BME280;46198;51.464;-0.066;2022-09-16T01:06:47;101494.59;;;13.93;62.60
60355;BME280;46198;51.464;-0.066;2022-09-16T01:09:17;101485.34;;;13.94;63.33
60355;BME280;46198;51.464;-0.066;2022-09-16T01:11:46;101489.13;;;13.93;63.11
60355;BME280;46198;51.464;-0.066;2022-09-16T01:14:15;101484.19;;;13.84;63.00
60355;BME280;46198;51.464;-0.066;2022-09-16T01:17:08;101481.91;;;13.81;62.93
60355;BME280;46198;51.464;-0.066;2022-09-16T01:19:54;101480.41;;;13.85;64.16
60355;BME280;46198;51.464;-0.066;2022-09-16T01:22:45;101482.97;;;13.80;64.87
60355;BME280;46198;51.464;-0.066;2022-09-16T01:25:31;101473.72;;;13.81;63.75
60355;BME280;46198;51.464;-0.066;2022-09-16T01:28:27;101491.16;;;13.80;63.65
60355;BME280;46198;51.464;-0.066;2022-09-16T01:31:07;101484.03;;;13.79;64.98
60355;BME280;46198;51.464;-0.066;2022-09-16T01:33:45;101484.09;;;13.72;64.92
60355;BME280;46198;51.464;-0.066;2022-09-16T01:36:34;101478.09;;;13.63;65.11
60355;BME280;46198;51.464;-0.066;2022-09-16T01:39:11;101474.31;;;13.64;66.09
60355;BME280;46198;51.464;-0.066;2022-09-16T01:41:56;101471.75;;;13.69;65.74
60355;BME280;46198;51.464;-0.066;2022-09-16T01:44:36;101481.44;;;13.65;65.84
60355;BME280;46198;51.464;-0.066;2022-09-16T01:47:12;101479.00;;;13.57;65.79
60355;BME280;46198;51.464;-0.066;2022-09-16T01:49:47;101473.94;;;13.61;66.88
60355;BME280;46198;51.464;-0.066;2022-09-16T01:52:25;101474.41;;;13.51;66.21
60355;BME280;46198;51.464;-0.066;2022-09-16T01:55:01;101473.66;;;13.44;67.42
60355;BME280;46198;51.464;-0.066;2022-09-16T01:57:33;101474.41;;;13.51;67.01
60355;BME280;46198;51.464;-0.066;2022-09-16T02:00:06;101472.31;;;13.53;67.57
60355;BME280;46198;51.464;-0.066;2022-09-16T02:02:41;101472.44;;;13.40;67.28
60355;BME280;46198;51.464;-0.066;2022-09-16T02:05:15;101469.69;;;13.40;67.82
60355;BME280;46198;51.464;-0.066;2022-09-16T02:07:48;101474.78;;;13.36;68.01
60355;BME280;46198;51.464;-0.066;2022-09-16T02:10:22;101477.59;;;13.16;69.73
60355;BME280;46198;51.464;-0.066;2022-09-16T02:12:54;101476.28;;;13.25;69.07
60355;BME280;46198;51.464;-0.066;2022-09-16T02:15:25;101486.34;;;13.32;68.45
60355;BME280;46198;51.464;-0.066;2022-09-16T02:18:00;101490.22;;;13.17;71.05
60355;BME280;46198;51.464;-0.066;2022-09-16T02:20:35;101488.97;;;13.13;69.87
60355;BME280;46198;51.464;-0.066;2022-09-16T02:23:07;101486.22;;;13.13;71.18
60355;BME280;46198;51.464;-0.066;2022-09-16T02:25:38;101492.69;;;13.19;69.69
60355;BME280;46198;51.464;-0.066;2022-09-16T02:28:11;101493.97;;;13.16;70.26
60355;BME280;46198;51.464;-0.066;2022-09-16T02:30:42;101487.50;;;13.11;71.87
60355;BME280;46198;51.464;-0.066;2022-09-16T02:33:15;101485.66;;;13.04;72.72
60355;BME280;46198;51.464;-0.066;2022-09-16T02:35:46;101484.47;;;13.00;72.09
60355;BME280;46198;51.464;-0.066;2022-09-16T02:38:21;101489.41;;;13.10;71.70
60355;BME280;46198;51.464;-0.066;2022-09-16T02:40:52;101486.50;;;13.05;71.54
60355;BME280;46198;51.464;-0.066;2022-09-16T02:43:21;101487.75;;;13.09;71.70
60355;BME280;46198;51.464;-0.066;2022-09-16T02:45:55;101494.13;;;12.96;72.33
60355;BME280;46198;51.464;-0.066;2022-09-16T02:48:30;101486.19;;;12.88;72.92
60355;BME280;46198;51.464;-0.066;2022-09-16T02:51:12;101493.91;;;12.98;71.54
60355;BME280;46198;51.464;-0.066;2022-09-16T02:53:46;101498.34;;;12.92;72.84
60355;BME280;46198;51.464;-0.066;2022-09-16T02:56:21;101494.75;;;12.92;73.06
60355;BME280;46198;51.464;-0.066;2022-09-16T02:58:51;101489.28;;;12.98;72.72
60355;BME280;46198;51.464;-0.066;2022-09-16T03:01:21;101489.53;;;12.90;73.33
60355;BME280;46198;51.464;-0.066;2022-09-16T03:03:54;101492.84;;;12.99;72.71
60355;BME280;46198;51.464;-0.066;2022-09-16T03:06:23;101484.88;;;12.97;72.81
60355;BME280;46198;51.464;-0.066;2022-09-16T03:08:53;101487.19;;;13.00;72.35
60355;BME280;46198;51.464;-0.066;2022-09-16T03:11:48;101490.75;;;13.01;73.33
60355;BME280;46198;51.464;-0.066;2022-09-16T03:14:41;101492.84;;;12.99;73.46
60355;BME280;46198;51.464;-0.066;2022-09-16T03:17:21;101483.72;;;12.86;74.14
60355;BME280;46198;51.464;-0.066;2022-09-16T03:19:58;101478.84;;;12.89;75.02
60355;BME280;46198;51.464;-0.066;2022-09-16T03:22:43;101487.03;;;12.89;74.41
60355;BME280;46198;51.464;-0.066;2022-09-16T03:25:22;101489.94;;;12.94;74.14
60355;BME280;46198;51.464;-0.066;2022-09-16T03:27:59;101483.53;;;12.81;75.05
60355;BME280;46198;51.464;-0.066;2022-09-16T03:30:31;101486.00;;;12.90;73.48
60355;BME280;46198;51.464;-0.066;2022-09-16T03:33:05;101484.47;;;12.94;75.01
60355;BME280;46198;51.464;-0.066;2022-09-16T03:35:41;101481.56;;;12.95;74.89
60355;BME280;46198;51.464;-0.066;2022-09-16T03:38:11;101489.06;;;13.00;74.53
60355;BME280;46198;51.464;-0.066;2022-09-16T03:40:41;101495.78;;;12.97;76.86
60355;BME280;46198;51.464;-0.066;2022-09-16T03:43:10;101486.75;;;13.03;73.79
60355;BME280;46198;51.464;-0.066;2022-09-16T03:45:39;101491.97;;;13.05;74.45
60355;BME280;46198;51.464;-0.066;2022-09-16T03:48:08;101499.09;;;13.06;75.89
60355;BME280;46198;51.464;-0.066;2022-09-16T03:50:38;101502.66;;;13.06;74.18
60355;BME280;46198;51.464;-0.066;2022-09-16T03:53:07;101499.53;;;13.03;74.53
60355;BME280;46198;51.464;-0.066;2022-09-16T03:55:35;101498.03;;;13.07;76.22
60355;BME280;46198;51.464;-0.066;2022-09-16T03:58:03;101500.97;;;13.05;76.62
60355;BME280;46198;51.464;-0.066;2022-09-16T04:00:31;101490.22;;;13.11;75.99
60355;BME280;46198;51.464;-0.066;2022-09-16T04:03:00;101500.41;;;12.97;75.21
60355;BME280;46198;51.464;-0.066;2022-09-16T04:05:28;101501.47;;;12.96;76.17
60355;BME280;46198;51.464;-0.066;2022-09-16T04:07:58;101496.00;;;12.96;75.12
60355;BME280;46198;51.464;-0.066;2022-09-16T04:10:26;101493.72;;;12.93;75.76
60355;BME280;46198;51.464;-0.066;2022-09-16T04:12:55;101504.63;;;12.93;76.72
60355;BME280;46198;51.464;-0.066;2022-09-16T04:15:24;101505.53;;;12.80;76.34
60355;BME280;46198;51.464;-0.066;2022-09-16T04:17:52;101487.53;;;12.79;77.39
60355;BME280;46198;51.464;-0.066;2022-09-16T04:20:22;101495.06;;;12.77;76.85
60355;BME280;46198;51.464;-0.066;2022-09-16T04:22:50;101500.91;;;12.80;76.92
60355;BME280;46198;51.464;-0.066;2022-09-16T04:25:20;101505.34;;;12.75;77.38
60355;BME280;46198;51.464;-0.066;2022-09-16T04:27:48;101495.97;;;12.64;77.84
60355;BME280;46198;51.464;-0.066;2022-09-16T04:30:16;101489.22;;;12.73;76.26
60355;BME280;46198;51.464;-0.066;2022-09-16T04:32:46;101502.59;;;12.81;76.65
60355;BME280;46198;51.464;-0.066;2022-09-16T04:35:14;101512.91;;;12.73;77.83
60355;BME280;46198;51.464;-0.066;2022-09-16T04:37:45;101510.16;;;12.79;77.75
60355;BME280;46198;51.464;-0.066;2022-09-16T04:40:14;101505.59;;;12.73;77.58
60355;BME280;46198;51.464;-0.066;2022-09-16T04:42:48;101514.78;;;12.72;77.33
60355;BME280;46198;51.464;-0.066;2022-09-16T04:45:17;101507.44;;;12.73;76.85
60355;BME280;46198;51.464;-0.066;2022-09-16T04:47:45;101511.81;;;12.80;76.35
60355;BME280;46198;51.464;-0.066;2022-09-16T04:50:13;101504.06;;;12.77;77.94
60355;BME280;46198;51.464;-0.066;2022-09-16T04:52:41;101492.53;;;12.82;76.81
60355;BME280;46198;51.464;-0.066;2022-09-16T04:55:09;101501.16;;;12.79;77.50
60355;BME280;46198;51.464;-0.066;2022-09-16T04:57:38;101492.53;;;12.82;76.80
60355;BME280;46198;51.464;-0.066;2022-09-16T05:00:09;101500.47;;;12.83;77.11
60355;BME280;46198;51.464;-0.066;2022-09-16T05:02:37;101497.97;;;12.82;77.08
60355;BME280;46198;51.464;-0.066;2022-09-16T05:05:06;101502.59;;;12.81;77.93
60355;BME280;46198;51.464;-0.066;2022-09-16T05:07:34;101501.41;;;12.71;78.48
60355;BME280;46198;51.464;-0.066;2022-09-16T05:10:02;101518.59;;;12.64;78.13
60355;BME280;46198;51.464;-0.066;2022-09-16T05:12:31;101521.56;;;12.63;80.30
60355;BME280;46198;51.464;-0.066;2022-09-16T05:14:59;101506.88;;;12.64;78.32
60355;BME280;46198;51.464;-0.066;2022-09-16T05:17:29;101505.16;;;12.70;78.30
60355;BME280;46198;51.464;-0.066;2022-09-16T05:20:16;101515.28;;;12.56;79.51
60355;BME280;46198;51.464;-0.066;2022-09-16T05:22:47;101522.44;;;12.57;78.22
60355;BME280;46198;51.464;-0.066;2022-09-16T05:25:15;101517.56;;;12.59;77.89
60355;BME280;46198;51.464;-0.066;2022-09-16T05:27:43;101514.25;;;12.57;78.68
60355;BME280;46198;51.464;-0.066;2022-09-16T05:30:12;101521.19;;;12.53;78.48
60355;BME280;46198;51.464;-0.066;2022-09-16T05:32:43;101522.44;;;12.57;77.88
60355;BME280;46198;51.464;-0.066;2022-09-16T05:35:11;101522.69;;;12.49;78.18
60355;BME280;46198;51.464;-0.066;2022-09-16T05:37:39;101524.97;;;12.52;79.62
60355;BME280;46198;51.464;-0.066;2022-09-16T05:40:08;101524.97;;;12.52;79.69
60355;BME280;46198;51.464;-0.066;2022-09-16T05:42:36;101534.59;;;12.48;79.07
60355;BME280;46198;51.464;-0.066;2022-09-16T05:45:05;101532.50;;;12.50;79.97
60355;BME280;46198;51.464;-0.066;2022-09-16T05:47:33;101534.66;;;12.34;80.74
60355;BME280;46198;51.464;-0.066;2022-09-16T05:50:03;101539.41;;;12.46;79.09
60355;BME280;46198;51.464;-0.066;2022-09-16T05:52:31;101533.56;;;12.49;79.79
60355;BME280;46198;51.464;-0.066;2022-09-16T05:54:59;101539.50;;;12.32;82.28
60355;BME280;46198;51.464;-0.066;2022-09-16T05:57:27;101539.50;;;12.32;80.77
60355;BME280;46198;51.464;-0.066;2022-09-16T05:59:55;101545.97;;;12.31;82.74
60355;BME280;46198;51.464;-0.066;2022-09-16T06:02:23;101550.16;;;12.40;81.04
60355;BME280;46198;51.464;-0.066;2022-09-16T06:04:52;101550.38;;;12.32;82.20
60355;BME280;46198;51.464;-0.066;2022-09-16T06:07:21;101548.50;;;12.33;81.54
60355;BME280;46198;51.464;-0.066;2022-09-16T06:09:49;101559.81;;;12.23;83.11
60355;BME280;46198;51.464;-0.066;2022-09-16T06:12:17;101560.00;;;12.28;82.29
60355;BME280;46198;51.464;-0.066;2022-09-16T06:14:46;101552.47;;;12.24;82.62
60355;BME280;46198;51.464;-0.066;2022-09-16T06:17:14;101565.66;;;12.27;84.01
60355;BME280;46198;51.464;-0.066;2022-09-16T06:19:43;101566.09;;;12.24;82.34
60355;BME280;46198;51.464;-0.066;2022-09-16T06:22:11;101562.78;;;12.22;82.21
60355;BME280;46198;51.464;-0.066;2022-09-16T06:24:40;101556.47;;;12.21;83.91
60355;BME280;46198;51.464;-0.066;2022-09-16T06:27:09;101560.88;;;12.22;82.01
60355;BME280;46198;51.464;-0.066;2022-09-16T06:29:37;101559.63;;;12.25;82.24
60355;BME280;46198;51.464;-0.066;2022-09-16T06:32:05;101556.47;;;12.21;83.51
60355;BME280;46198;51.464;-0.066;2022-09-16T06:34:33;101566.34;;;12.09;83.63
60355;BME280;46198;51.464;-0.066;2022-09-16T06:37:01;101566.13;;;12.17;83.03
60355;BME280;46198;51.464;-0.066;2022-09-16T06:39:29;101570.53;;;12.11;84.50
60355;BME280;46198;51.464;-0.066;2022-09-16T06:41:58;101575.94;;;12.18;83.05
60355;BME280;46198;51.464;-0.066;2022-09-16T06:44:38;101573.44;;;12.23;82.50
60355;BME280;46198;51.464;-0.066;2022-09-16T06:47:07;101574.06;;;12.25;82.64
60355;BME280;46198;51.464;-0.066;2022-09-16T06:49:35;101572.41;;;12.24;84.36
60355;BME280;46198;51.464;-0.066;2022-09-16T06:52:03;101578.66;;;12.31;82.48
60355;BME280;46198;51.464;-0.066;2022-09-16T06:54:31;101577.00;;;12.30;82.24
60355;BME280;46198;51.464;-0.066;2022-09-16T06:57:01;101590.38;;;12.32;82.41
60355;BME280;46198;51.464;-0.066;2022-09-16T06:59:33;101589.50;;;12.45;83.13
60355;BME280;46198;51.464;-0.066;2022-09-16T07:02:01;101577.97;;;12.42;82.32
60355;BME280;46198;51.464;-0.066;2022-09-16T07:04:29;101588.88;;;12.42;82.99
60355;BME280;46198;51.464;-0.066;2022-09-16T07:18:32;101593.56;;;12.80;80.83
60355;BME280;46198;51.464;-0.066;2022-09-16T07:21:01;101604.06;;;12.77;80.14
60355;BME280;46198;51.464;-0.066;2022-09-16T07:23:30;101593.75;;;12.92;79.00
60355;BME280;46198;51.464;-0.066;2022-09-16T07:26:00;101601.44;;;13.02;79.94
60355;BME280;46198;51.464;-0.066;2022-09-16T07:28:29;101597.50;;;12.91;79.25
60355;BME280;46198;51.464;-0.066;2022-09-16T07:30:59;101594.41;;;12.81;78.56
60355;BME280;46198;51.464;-0.066;2022-09-16T07:33:28;101591.41;;;12.96;79.40
60355;BME280;46198;51.464;-0.066;2022-09-16T07:35:59;101594.78;;;12.91;78.17
60355;BME280;46198;51.464;-0.066;2022-09-16T07:38:28;101599.56;;;13.02;79.34
60355;BME280;46198;51.464;-0.066;2022-09-16T07:41:03;101601.44;;;13.08;78.29
60355;BME280;46198;51.464;-0.066;2022-09-16T07:43:31;101601.84;;;13.05;78.53
60355;BME280;46198;51.464;-0.066;2022-09-16T07:46:00;101609.84;;;13.00;76.89
60355;BME280;46198;51.464;-0.066;2022-09-16T07:48:30;101617.59;;;13.03;77.37
60355;BME280;46198;51.464;-0.066;2022-09-16T07:51:04;101608.16;;;13.06;76.42
60355;BME280;46198;51.464;-0.066;2022-09-16T07:53:33;101621.09;;;13.11;77.05
60355;BME280;46198;51.464;-0.066;2022-09-16T07:56:01;101619.06;;;12.99;76.86
60355;BME280;46198;51.464;-0.066;2022-09-16T07:58:31;101629.34;;;13.04;78.41
60355;BME280;46198;51.464;-0.066;2022-09-16T08:00:59;101627.31;;;13.24;79.20
60355;BME280;46198;51.464;-0.066;2022-09-16T08:03:30;101628.66;;;13.15;76.17
60355;BME280;46198;51.464;-0.066;2022-09-16T08:05:59;101636.56;;;13.23;76.87
60355;BME280;46198;51.464;-0.066;2022-09-16T08:08:30;101633.88;;;13.30;75.36
60355;BME280;46198;51.464;-0.066;2022-09-16T08:10:59;101635.25;;;13.39;74.78
60355;BME280;46198;51.464;-0.066;2022-09-16T08:13:29;101636.00;;;13.53;74.22
60355;BME280;46198;51.464;-0.066;2022-09-16T08:15:59;101637.28;;;13.50;75.36
60355;BME280;46198;51.464;-0.066;2022-09-16T08:18:28;101638.63;;;13.41;71.17
60355;BME280;46198;51.464;-0.066;2022-09-16T08:20:56;101636.72;;;13.42;72.03
60355;BME280;46198;51.464;-0.066;2022-09-16T08:23:29;101639.38;;;13.55;72.07
60355;BME280;46198;51.464;-0.066;2022-09-16T08:26:00;101639.19;;;13.50;70.44
60355;BME280;46198;51.464;-0.066;2022-09-16T08:28:29;101651.50;;;13.27;69.66
60355;BME280;46198;51.464;-0.066;2022-09-16T08:31:18;101645.81;;;13.22;68.95
60355;BME280;46198;51.464;-0.066;2022-09-16T08:33:46;101655.00;;;13.35;69.69
60355;BME280;46198;51.464;-0.066;2022-09-16T08:36:16;101658.28;;;13.50;70.65
60355;BME280;46198;51.464;-0.066;2022-09-16T08:38:48;101662.84;;;13.56;67.48
60355;BME280;46198;51.464;-0.066;2022-09-16T08:41:50;101650.66;;;13.65;71.20
60355;BME280;46198;51.464;-0.066;2022-09-16T08:44:31;101667.75;;;13.79;71.54
60355;BME280;46198;51.464;-0.066;2022-09-16T08:47:03;101663.41;;;13.71;68.35
60355;BME280;46198;51.464;-0.066;2022-09-16T08:49:34;101668.94;;;13.90;66.45
60355;BME280;46198;51.464;-0.066;2022-09-16T08:52:11;101665.69;;;14.25;69.91
60355;BME280;46198;51.464;-0.066;2022-09-16T08:54:44;101663.59;;;14.27;68.64
60355;BME280;46198;51.464;-0.066;2022-09-16T08:57:16;101668.59;;;14.30;68.05
60355;BME280;46198;51.464;-0.066;2022-09-16T08:59:48;101672.84;;;14.26;65.64
60355;BME280;46198;51.464;-0.066;2022-09-16T09:02:32;101668.00;;;14.46;65.88
60355;BME280;46198;51.464;-0.066;2022-09-16T09:05:13;101673.47;;;14.46;65.71
60355;BME280;46198;51.464;-0.066;2022-09-16T09:07:50;101676.22;;;14.46;64.52
60355;BME280;46198;51.464;-0.066;2022-09-16T09:10:24;101676.19;;;14.90;64.34
60355;BME280;46198;51.464;-0.066;2022-09-16T09:12:58;101675.75;;;14.93;64.48
60355;BME280;46198;51.464;-0.066;2022-09-16T09:15:36;101677.66;;;14.92;62.73
60355;BME280;46198;51.464;-0.066;2022-09-16T09:18:23;101675.22;;;14.84;65.35
60355;BME280;46198;51.464;-0.066;2022-09-16T09:21:05;101684.41;;;14.90;64.35
60355;BME280;46198;51.464;-0.066;2022-09-16T09:23:46;101684.34;;;14.78;63.21
60355;BME280;46198;51.464;-0.066;2022-09-16T09:26:21;101693.06;;;14.68;63.40
60355;BME280;46198;51.464;-0.066;2022-09-16T09:29:12;101691.41;;;14.42;63.12
60355;BME280;46198;51.464;-0.066;2022-09-16T09:31:51;101693.69;;;14.89;64.62
60355;BME280;46198;51.464;-0.066;2022-09-16T09:34:34;101695.03;;;15.16;63.76
60355;BME280;46198;51.464;-0.066;2022-09-16T09:37:33;101703.84;;;15.18;60.81
60355;BME280;46198;51.464;-0.066;2022-09-16T09:40:10;101702.03;;;14.94;61.34
60355;BME280;46198;51.464;-0.066;2022-09-16T09:42:45;101691.06;;;15.30;62.95
60355;BME280;46198;51.464;-0.066;2022-09-16T09:45:18;101694.88;;;15.11;61.42
60355;BME280;46198;51.464;-0.066;2022-09-16T09:47:53;101697.31;;;15.01;60.31
60355;BME280;46198;51.464;-0.066;2022-09-16T09:50:26;101696.88;;;14.85;58.88
60355;BME280;46198;51.464;-0.066;2022-09-16T09:53:12;101705.09;;;14.85;58.86
60355;BME280;46198;51.464;-0.066;2022-09-16T09:55:41;101694.06;;;14.92;59.66
60355;BME280;46198;51.464;-0.066;2022-09-16T09:58:25;101702.88;;;14.94;59.33
60355;BME280;46198;51.464;-0.066;2022-09-16T10:00:55;101695.81;;;15.23;58.81
60355;BME280;46198;51.464;-0.066;2022-09-16T10:03:25;101699.22;;;15.00;58.48
60355;BME280;46198;51.464;-0.066;2022-09-16T10:05:54;101700.16;;;15.13;58.12
60355;BME280;46198;51.464;-0.066;2022-09-16T10:08:25;101704.75;;;14.75;58.52
60355;BME280;46198;51.464;-0.066;2022-09-16T10:10:56;101697.91;;;14.84;58.88
60355;BME280;46198;51.464;-0.066;2022-09-16T10:13:28;101700.50;;;15.16;58.75
60355;BME280;46198;51.464;-0.066;2022-09-16T10:16:06;101696.34;;;15.14;58.36
60355;BME280;46198;51.464;-0.066;2022-09-16T10:18:36;101696.78;;;15.11;58.50
60355;BME280;46198;51.464;-0.066;2022-09-16T10:21:06;101693.91;;;15.24;58.34
60355;BME280;46198;51.464;-0.066;2022-09-16T10:23:35;101697.09;;;15.21;56.54
60355;BME280;46198;51.464;-0.066;2022-09-16T10:26:20;101701.75;;;15.20;56.90
60355;BME280;46198;51.464;-0.066;2022-09-16T10:28:55;101691.47;;;14.97;57.15
60355;BME280;46198;51.464;-0.066;2022-09-16T10:31:25;101692.72;;;15.01;57.46
60355;BME280;46198;51.464;-0.066;2022-09-16T10:34:00;101689.25;;;15.24;56.32
60355;BME280;46198;51.464;-0.066;2022-09-16T10:36:33;101694.66;;;15.13;55.89
60355;BME280;46198;51.464;-0.066;2022-09-16T10:39:02;101689.63;;;15.28;58.66
60355;BME280;46198;51.464;-0.066;2022-09-16T10:41:33;101690.53;;;15.40;54.86
60355;BME280;46198;51.464;-0.066;2022-09-16T10:44:17;101693.47;;;15.39;55.60
60355;BME280;46198;51.464;-0.066;2022-09-16T10:46:51;101682.75;;;15.56;53.49
60355;BME280;46198;51.464;-0.066;2022-09-16T10:49:25;101688.22;;;15.56;52.70
60355;BME280;46198;51.464;-0.066;2022-09-16T10:52:06;101691.22;;;15.66;51.55
60355;BME280;46198;51.464;-0.066;2022-09-16T10:54:35;101696.16;;;15.45;52.23
60355;BME280;46198;51.464;-0.066;2022-09-16T10:57:20;101690.66;;;16.17;52.77
60355;BME280;46198;51.464;-0.066;2022-09-16T10:59:58;101690.19;;;16.32;51.98
60355;BME280;46198;51.464;-0.066;2022-09-16T11:02:40;101688.38;;;16.14;50.04
60355;BME280;46198;51.464;-0.066;2022-09-16T11:05:23;101690.34;;;15.84;51.20
60355;BME280;46198;51.464;-0.066;2022-09-16T11:08:19;101688.38;;;16.03;50.24
60355;BME280;46198;51.464;-0.066;2022-09-16T11:10:56;101690.97;;;15.98;50.93
60355;BME280;46198;51.464;-0.066;2022-09-16T11:13:34;101689.38;;;15.78;51.06
60355;BME280;46198;51.464;-0.066;2022-09-16T11:16:17;101692.63;;;15.99;50.52
60355;BME280;46198;51.464;-0.066;2022-09-16T11:18:55;101695.69;;;16.44;49.58
60355;BME280;46198;51.464;-0.066;2022-09-16T11:21:51;101691.81;;;15.98;48.29
60355;BME280;46198;51.464;-0.066;2022-09-16T11:24:34;101693.28;;;16.12;51.50
60355;BME280;46198;51.464;-0.066;2022-09-16T11:27:13;101692.41;;;15.88;50.73
60355;BME280;46198;51.464;-0.066;2022-09-16T11:30:01;101680.69;;;16.23;49.04
60355;BME280;46198;51.464;-0.066;2022-09-16T11:32:44;101691.28;;;16.31;50.29
60355;BME280;46198;51.464;-0.066;2022-09-16T11:38:22;101692.16;;;15.90;48.47
60355;BME280;46198;51.464;-0.066;2022-09-16T11:40:56;101684.19;;;16.00;48.70
60355;BME280;46198;51.464;-0.066;2022-09-16T11:43:51;101695.72;;;15.90;50.43
60355;BME280;46198;51.464;-0.066;2022-09-16T11:46:30;101689.50;;;16.49;48.02
60355;BME280;46198;51.464;-0.066;2022-09-16T11:49:13;101684.84;;;16.84;48.33
60355;BME280;46198;51.464;-0.066;2022-09-16T11:51:55;101692.59;;;16.52;47.13
60355;BME280;46198;51.464;-0.066;2022-09-16T11:54:48;101686.94;;;16.12;46.50
60355;BME280;46198;51.464;-0.066;2022-09-16T11:57:26;101706.47;;;16.04;47.22
60355;BME280;46198;51.464;-0.066;2022-09-16T11:59:58;101692.22;;;16.25;43.82
60355;BME280;46198;51.464;-0.066;2022-09-16T12:02:45;101689.81;;;16.17;46.43
60355;BME280;46198;51.464;-0.066;2022-09-16T12:05:18;101686.59;;;15.97;45.31
60355;BME280;46198;51.464;-0.066;2022-09-16T12:07:53;101706.31;;;15.87;46.34
60355;BME280;46198;51.464;-0.066;2022-09-16T12:10:26;101697.47;;;15.73;46.62
60355;BME280;46198;51.464;-0.066;2022-09-16T12:12:59;101692.97;;;15.90;47.84
60355;BME280;46198;51.464;-0.066;2022-09-16T12:15:32;101697.13;;;15.81;46.03
60355;BME280;46198;51.464;-0.066;2022-09-16T12:18:07;101705.84;;;15.60;45.41
60355;BME280;46198;51.464;-0.066;2022-09-16T12:20:40;101700.22;;;15.55;45.65
60355;BME280;46198;51.464;-0.066;2022-09-16T12:23:15;101704.22;;;15.40;46.93
60355;BME280;46198;51.464;-0.066;2022-09-16T12:25:47;101702.13;;;15.84;46.75
60355;BME280;46198;51.464;-0.066;2022-09-16T12:28:28;101706.03;;;16.07;45.75
60355;BME280;46198;51.464;-0.066;2022-09-16T12:31:05;101698.66;;;16.19;45.89
60355;BME280;46198;51.464;-0.066;2022-09-16T12:33:39;101697.00;;;16.18;45.83
60355;BME280;46198;51.464;-0.066;2022-09-16T12:36:14;101705.09;;;16.13;44.84
60355;BME280;46198;51.464;-0.066;2022-09-16T12:38:48;101698.34;;;15.85;45.39
60355;BME280;46198;51.464;-0.066;2022-09-16T12:41:32;101702.78;;;15.68;44.27
60355;BME280;46198;51.464;-0.066;2022-09-16T12:47:15;101708.06;;;15.69;44.41
60355;BME280;46198;51.464;-0.066;2022-09-16T12:50:05;101705.38;;;15.63;45.27
60355;BME280;46198;51.464;-0.066;2022-09-16T12:55:58;101717.13;;;15.82;46.08
60355;BME280;46198;51.464;-0.066;2022-09-16T12:58:56;101714.25;;;15.77;45.80
60355;BME280;46198;51.464;-0.066;2022-09-16T13:01:29;101701.44;;;15.77;44.69
60355;BME280;46198;51.464;-0.066;2022-09-16T13:04:03;101694.56;;;15.98;45.17
60355;BME280;46198;51.464;-0.066;2022-09-16T13:06:37;101700.28;;;15.97;44.90
60355;BME280;46198;51.464;-0.066;2022-09-16T13:09:17;101698.72;;;15.89;45.69
60355;BME280;46198;51.464;-0.066;2022-09-16T13:11:54;101697.63;;;15.90;45.71
60355;BME280;46198;51.464;-0.066;2022-09-16T13:14:44;101704.94;;;15.96;44.97
60355;BME280;46198;51.464;-0.066;2022-09-16T13:17:13;101706.38;;;16.10;45.51
60355;BME280;46198;51.464;-0.066;2022-09-16T13:19:45;101709.22;;;16.04;43.35
60355;BME280;46198;51.464;-0.066;2022-09-16T13:22:21;101697.69;;;16.02;44.42
60355;BME280;46198;51.464;-0.066;2022-09-16T13:24:54;101706.25;;;16.17;44.98
60355;BME280;46198;51.464;-0.066;2022-09-16T13:27:31;101704.97;;;16.20;43.88
60355;BME280;46198;51.464;-0.066;2022-09-16T13:30:11;101704.69;;;16.09;44.73
60355;BME280;46198;51.464;-0.066;2022-09-16T13:32:43;101711.50;;;16.07;43.62
60355;BME280;46198;51.464;-0.066;2022-09-16T13:35:34;101712.25;;;15.72;44.29